createdAt,value
2018-03-22T00:00:58.420Z,22.74
2018-03-22T00:03:27.878Z,22.86
2018-03-22T00:05:57.303Z,22.73
2018-03-22T00:08:26.843Z,22.71
2018-03-22T00:10:56.219Z,22.57
2018-03-22T00:13:25.630Z,22.61
2018-03-22T00:15:55.115Z,22.72
2018-03-22T00:18:24.381Z,22.73
2018-03-22T00:20:53.846Z,22.74
2018-03-22T00:23:23.255Z,22.63
2018-03-22T00:25:52.506Z,22.59
2018-03-22T00:28:22.077Z,22.72
2018-03-22T00:30:51.376Z,22.67
2018-03-22T00:33:20.909Z,22.56
2018-03-22T00:35:50.077Z,22.58
2018-03-22T00:38:19.362Z,22.44
2018-03-22T00:40:48.859Z,22.52
2018-03-22T00:43:18.177Z,22.62
2018-03-22T00:45:47.709Z,22.55
2018-03-22T00:48:17.259Z,22.55
2018-03-22T00:50:46.731Z,22.61
2018-03-22T00:53:15.992Z,22.72
2018-03-22T00:55:45.492Z,22.77
2018-03-22T00:58:14.989Z,22.63
2018-03-22T01:00:45.529Z,22.60
2018-03-22T01:03:15.080Z,22.71
2018-03-22T01:05:44.751Z,22.57
2018-03-22T01:08:14.103Z,22.62
2018-03-22T01:10:43.132Z,22.40
2018-03-22T01:13:12.326Z,22.40
2018-03-22T01:15:56.411Z,22.45
2018-03-22T01:18:25.564Z,22.58
2018-03-22T01:20:55.032Z,22.62
2018-03-22T01:23:24.525Z,22.55
2018-03-22T01:25:53.888Z,22.58
2018-03-22T01:28:23.234Z,22.45
2018-03-22T01:30:52.741Z,22.68
2018-03-22T01:33:22.032Z,22.61
2018-03-22T01:35:51.161Z,22.56
2018-03-22T01:38:20.986Z,22.67
2018-03-22T01:40:50.279Z,22.77
2018-03-22T01:43:19.605Z,22.91
2018-03-22T01:45:48.836Z,22.97
2018-03-22T01:48:18.160Z,22.88
2018-03-22T01:50:47.500Z,23.11
2018-03-22T01:53:16.692Z,22.77
2018-03-22T01:55:46.086Z,22.74
2018-03-22T01:58:16.004Z,23.02
2018-03-22T02:00:45.312Z,22.95
2018-03-22T02:03:14.655Z,23.19
2018-03-22T02:05:44.292Z,23.39
2018-03-22T02:08:13.618Z,23.89
2018-03-22T02:10:43.075Z,23.72
2018-03-22T02:13:12.393Z,23.48
2018-03-22T02:15:41.797Z,23.76
2018-03-22T02:18:11.049Z,24.13
2018-03-22T02:20:40.499Z,24.48
2018-03-22T02:23:10.179Z,24.46
2018-03-22T02:25:39.598Z,24.44
2018-03-22T02:28:09.028Z,24.53
2018-03-22T02:30:38.286Z,24.68
2018-03-22T02:33:07.826Z,24.36
2018-03-22T02:35:37.043Z,24.59
2018-03-22T02:38:06.253Z,24.83
2018-03-22T02:40:35.814Z,25.30
2018-03-22T02:43:06.346Z,25.36
2018-03-22T02:45:35.591Z,25.43
2018-03-22T02:48:05.286Z,25.51
2018-03-22T02:50:34.567Z,25.29
2018-03-22T02:53:04.022Z,25.54
2018-03-22T02:55:33.462Z,26.02
2018-03-22T02:58:03.186Z,26.04
2018-03-22T03:00:33.043Z,26.54
2018-03-22T03:03:02.592Z,26.47
2018-03-22T03:05:32.107Z,26.82
2018-03-22T03:08:01.485Z,26.36
2018-03-22T03:10:31.105Z,26.91
2018-03-22T03:13:00.362Z,26.75
2018-03-22T03:15:29.998Z,27.00
2018-03-22T03:17:59.364Z,27.20
2018-03-22T03:20:28.937Z,27.61
2018-03-22T03:22:58.542Z,27.77
2018-03-22T03:25:27.963Z,27.52
2018-03-22T03:27:57.353Z,27.48
2018-03-22T03:30:26.690Z,27.48
2018-03-22T03:32:56.193Z,27.75
2018-03-22T03:35:25.576Z,27.84
2018-03-22T03:37:55.056Z,27.74
2018-03-22T03:40:24.704Z,28.00
2018-03-22T03:42:54.078Z,28.26
2018-03-22T03:45:23.424Z,28.55
2018-03-22T03:47:52.800Z,29.20
2018-03-22T03:50:21.730Z,29.00
2018-03-22T03:52:51.041Z,29.52
2018-03-22T03:55:20.437Z,29.66
2018-03-22T03:57:49.690Z,29.41
2018-03-22T04:00:19.477Z,29.19
2018-03-22T04:02:48.515Z,28.88
2018-03-22T04:05:17.613Z,29.36
2018-03-22T04:07:47.331Z,30.03
2018-03-22T04:10:16.135Z,30.37
2018-03-22T04:12:45.356Z,30.15
2018-03-22T04:15:14.699Z,30.04
2018-03-22T04:17:44.122Z,30.34
2018-03-22T04:20:13.263Z,30.69
2018-03-22T04:22:42.631Z,30.58
2018-03-22T04:25:12.105Z,30.11
2018-03-22T04:27:41.657Z,30.41
2018-03-22T04:30:11.045Z,30.46
2018-03-22T04:32:40.500Z,31.01
2018-03-22T04:35:09.596Z,30.31
2018-03-22T04:37:38.539Z,29.80
2018-03-22T04:40:07.943Z,30.10
2018-03-22T04:42:37.252Z,31.00
2018-03-22T04:45:06.790Z,30.90
2018-03-22T04:47:37.167Z,31.00
2018-03-22T04:50:07.698Z,30.98
2018-03-22T04:52:38.354Z,31.35
2018-03-22T04:55:08.632Z,29.79
2018-03-22T04:57:39.447Z,30.33
2018-03-22T05:00:09.877Z,31.35
2018-03-22T05:02:40.424Z,30.78
2018-03-22T05:05:10.664Z,31.23
2018-03-22T05:07:41.327Z,30.98
2018-03-22T05:10:10.551Z,30.54
2018-03-22T05:12:39.658Z,30.98
2018-03-22T05:15:09.294Z,31.33
2018-03-22T05:17:38.403Z,31.46
2018-03-22T05:20:08.781Z,32.10
2018-03-22T05:22:38.214Z,32.44
2018-03-22T05:25:08.591Z,31.54
2018-03-22T05:27:38.506Z,31.71
2018-03-22T05:30:08.303Z,32.43
2018-03-22T05:32:38.744Z,32.62
2018-03-22T05:35:09.826Z,32.20
2018-03-22T05:37:41.340Z,32.17
2018-03-22T05:40:12.340Z,32.03
2018-03-22T05:42:43.579Z,33.01
2018-03-22T05:45:14.921Z,32.51
2018-03-22T05:47:45.723Z,32.49
2018-03-22T05:50:16.676Z,33.13
2018-03-22T05:52:47.928Z,33.45
2018-03-22T05:55:19.059Z,33.22
2018-03-22T05:57:49.820Z,34.37
2018-03-22T06:00:21.664Z,34.40
2018-03-22T06:02:52.705Z,33.84
2018-03-22T06:05:22.133Z,32.99
2018-03-22T06:07:53.384Z,33.74
2018-03-22T06:10:24.595Z,33.73
2018-03-22T06:12:55.206Z,33.84
2018-03-22T06:15:25.507Z,33.19
2018-03-22T06:17:56.399Z,33.03
2018-03-22T06:20:28.305Z,33.40
2018-03-22T06:22:59.428Z,34.00
2018-03-22T06:25:31.450Z,33.79
2018-03-22T06:28:03.038Z,33.60
2018-03-22T06:30:35.165Z,33.30
2018-03-22T06:33:05.894Z,32.89
2018-03-22T06:35:37.023Z,32.85
2018-03-22T06:38:08.198Z,32.60
2018-03-22T06:40:39.915Z,33.25
2018-03-22T06:43:11.098Z,34.30
2018-03-22T06:45:42.612Z,34.65
2018-03-22T06:48:13.729Z,34.98
2018-03-22T06:50:43.350Z,34.88
2018-03-22T06:53:13.709Z,34.69
2018-03-22T06:55:44.339Z,34.21
2018-03-22T06:58:15.041Z,34.08
2018-03-22T07:00:45.287Z,33.94
2018-03-22T07:03:15.651Z,34.08
2018-03-22T07:05:46.381Z,33.96
2018-03-22T07:08:17.738Z,34.98
2018-03-22T07:10:48.495Z,34.76
2018-03-22T07:13:19.047Z,35.42
2018-03-22T07:15:48.321Z,35.17
2018-03-22T07:18:17.680Z,34.49
2018-03-22T07:20:48.929Z,34.78
2018-03-22T07:23:18.234Z,34.11
2018-03-22T07:25:48.746Z,34.14
2018-03-22T07:28:17.764Z,33.39
2018-03-22T07:30:46.802Z,34.17
2018-03-22T07:33:15.905Z,34.15
2018-03-22T07:35:46.279Z,34.28
2018-03-22T07:38:16.932Z,34.12
2018-03-22T07:40:46.953Z,33.78
2018-03-22T07:43:22.788Z,33.66
2018-03-22T07:45:52.519Z,33.73
2018-03-22T07:48:22.176Z,33.95
2018-03-22T07:50:52.888Z,34.13
2018-03-22T07:53:22.826Z,34.07
2018-03-22T07:55:53.292Z,34.71
2018-03-22T07:58:23.880Z,34.02
2018-03-22T08:00:54.774Z,34.33
2018-03-22T08:03:25.790Z,34.70
2018-03-22T08:05:55.685Z,35.28
2018-03-22T08:08:26.735Z,35.22
2018-03-22T08:10:57.400Z,34.23
2018-03-22T08:13:28.672Z,35.00
2018-03-22T08:15:59.853Z,34.93
2018-03-22T08:18:31.608Z,34.98
2018-03-22T08:21:02.536Z,34.46
2018-03-22T08:23:33.563Z,34.68
2018-03-22T08:26:04.676Z,34.77
2018-03-22T08:28:36.144Z,34.73
2018-03-22T08:31:07.026Z,34.63
2018-03-22T08:33:37.550Z,33.92
2018-03-22T08:36:07.023Z,33.93
2018-03-22T08:38:37.802Z,34.20
2018-03-22T08:41:09.126Z,34.45
2018-03-22T08:43:39.012Z,34.40
2018-03-22T08:46:09.379Z,34.80
2018-03-22T08:48:39.610Z,34.15
2018-03-22T08:51:09.515Z,34.08
2018-03-22T08:53:39.739Z,33.48
2018-03-22T08:56:09.705Z,32.76
2018-03-22T08:58:40.433Z,33.29
2018-03-22T09:01:11.120Z,34.09
2018-03-22T09:03:40.640Z,34.33
2018-03-22T09:06:11.687Z,34.06
2018-03-22T09:08:42.010Z,34.46
2018-03-22T09:11:12.908Z,34.49
2018-03-22T09:13:43.561Z,34.35
2018-03-22T09:16:14.416Z,34.37
2018-03-22T09:18:45.097Z,34.32
2018-03-22T09:21:17.515Z,33.83
2018-03-22T09:23:48.248Z,33.80
2018-03-22T09:26:18.571Z,34.18
2018-03-22T09:28:50.329Z,33.99
2018-03-22T09:31:21.643Z,34.48
2018-03-22T09:33:52.811Z,34.35
2018-03-22T09:36:23.473Z,34.36
2018-03-22T09:38:54.685Z,34.05
2018-03-22T09:41:25.350Z,33.94
2018-03-22T09:43:56.324Z,34.30
2018-03-22T09:46:26.991Z,34.57
2018-03-22T09:48:57.476Z,34.73
2018-03-22T09:51:27.995Z,34.42
2018-03-22T09:53:58.426Z,34.08
2018-03-22T09:56:28.940Z,34.03
2018-03-22T09:58:59.562Z,34.15
2018-03-22T10:01:30.365Z,34.08
2018-03-22T10:04:00.642Z,34.10
2018-03-22T10:06:31.115Z,33.90
2018-03-22T10:09:01.702Z,33.86
2018-03-22T10:11:33.004Z,33.99
2018-03-22T10:14:04.178Z,34.05
2018-03-22T10:16:36.314Z,34.10
2018-03-22T10:19:06.788Z,33.81
2018-03-22T10:21:39.718Z,33.61
2018-03-22T10:24:10.202Z,33.55
2018-03-22T10:26:41.080Z,33.60
2018-03-22T10:29:12.668Z,33.53
2018-03-22T10:31:45.041Z,33.64
2018-03-22T10:34:15.556Z,33.53
2018-03-22T10:36:46.847Z,33.45
2018-03-22T10:39:18.849Z,33.43
2018-03-22T10:41:49.786Z,33.34
2018-03-22T10:44:20.073Z,33.06
2018-03-22T10:46:50.269Z,33.09
2018-03-22T10:49:21.355Z,33.10
2018-03-22T10:51:52.112Z,33.06
2018-03-22T10:54:22.244Z,33.03
2018-03-22T10:56:52.816Z,32.72
2018-03-22T10:59:22.370Z,32.78
2018-03-22T11:01:57.611Z,32.64
2018-03-22T11:04:27.809Z,32.77
2018-03-22T11:06:58.703Z,32.67
2018-03-22T11:09:29.842Z,32.67
2018-03-22T11:11:59.444Z,32.29
2018-03-22T11:14:29.425Z,32.79
2018-03-22T11:16:59.341Z,32.55
2018-03-22T11:19:30.485Z,32.42
2018-03-22T11:21:59.814Z,32.48
2018-03-22T11:24:30.266Z,32.57
2018-03-22T11:27:00.534Z,32.59
2018-03-22T11:29:30.405Z,32.46
2018-03-22T11:31:59.747Z,32.49
2018-03-22T11:34:29.337Z,32.52
2018-03-22T11:36:58.623Z,32.60
2018-03-22T11:39:27.731Z,32.48
2018-03-22T11:41:58.387Z,32.38
2018-03-22T11:44:27.909Z,32.38
2018-03-22T11:46:57.606Z,32.38
2018-03-22T11:49:27.379Z,32.25
2018-03-22T11:52:11.925Z,32.30
2018-03-22T11:54:42.491Z,32.26
2018-03-22T11:57:12.724Z,32.15
2018-03-22T11:59:42.955Z,32.16
2018-03-22T12:02:12.965Z,32.21
2018-03-22T12:04:42.855Z,32.06
2018-03-22T12:07:12.630Z,32.04
2018-03-22T12:09:42.124Z,31.91
2018-03-22T12:12:11.309Z,31.93
2018-03-22T12:14:40.599Z,31.83
2018-03-22T12:17:09.899Z,31.76
2018-03-22T12:19:39.006Z,31.67
2018-03-22T12:22:08.738Z,31.62
2018-03-22T12:24:37.857Z,31.59
2018-03-22T12:27:07.348Z,31.44
2018-03-22T12:29:36.389Z,31.41
2018-03-22T12:32:05.741Z,31.41
2018-03-22T12:34:34.970Z,31.35
2018-03-22T12:37:04.965Z,31.33
2018-03-22T12:39:34.254Z,31.25
2018-03-22T12:42:03.344Z,31.16
2018-03-22T12:44:32.713Z,31.10
2018-03-22T12:47:01.983Z,31.02
2018-03-22T12:49:31.067Z,30.91
2018-03-22T12:52:00.074Z,30.82
2018-03-22T12:54:29.525Z,30.82
2018-03-22T12:56:58.493Z,30.87
2018-03-22T12:59:27.718Z,30.76
2018-03-22T13:01:56.567Z,30.68
2018-03-22T13:04:26.263Z,30.46
2018-03-22T13:06:55.550Z,30.29
2018-03-22T13:09:26.151Z,30.26
2018-03-22T13:11:55.308Z,30.15
2018-03-22T13:14:24.567Z,30.07
2018-03-22T13:16:53.734Z,30.00
2018-03-22T13:19:23.487Z,29.90
2018-03-22T13:21:52.728Z,29.89
2018-03-22T13:24:22.510Z,30.09
2018-03-22T13:26:51.563Z,30.06
2018-03-22T13:29:20.946Z,30.11
2018-03-22T13:31:50.340Z,29.99
2018-03-22T13:34:20.063Z,29.93
2018-03-22T13:36:49.203Z,29.89
2018-03-22T13:39:18.231Z,29.83
2018-03-22T13:41:47.983Z,29.76
2018-03-22T13:44:17.051Z,29.73
2018-03-22T13:46:46.315Z,29.60
2018-03-22T13:49:15.829Z,29.59
2018-03-22T13:51:45.063Z,29.50
2018-03-22T13:54:14.242Z,29.45
2018-03-22T13:56:44.068Z,29.50
2018-03-22T13:59:13.042Z,29.42
2018-03-22T14:01:42.468Z,29.28
2018-03-22T14:04:11.519Z,29.22
2018-03-22T14:06:40.774Z,29.15
2018-03-22T14:09:10.240Z,29.09
2018-03-22T14:11:39.718Z,29.10
2018-03-22T14:14:09.190Z,29.19
2018-03-22T14:16:38.401Z,29.13
2018-03-22T14:19:07.625Z,29.13
2018-03-22T14:21:37.402Z,29.13
2018-03-22T14:24:06.773Z,29.22
2018-03-22T14:26:36.451Z,29.17
2018-03-22T14:29:05.797Z,29.22
2018-03-22T14:31:35.375Z,29.09
2018-03-22T14:34:04.797Z,29.08
2018-03-22T14:36:34.060Z,29.04
2018-03-22T14:39:03.470Z,29.00
2018-03-22T14:41:32.962Z,28.97
2018-03-22T14:44:02.228Z,28.86
2018-03-22T14:46:31.203Z,28.80
2018-03-22T14:49:01.130Z,28.85
2018-03-22T14:51:30.170Z,28.69
2018-03-22T14:53:59.451Z,28.52
2018-03-22T14:56:28.762Z,28.59
2018-03-22T14:58:57.894Z,28.52
2018-03-22T15:01:26.709Z,28.39
2018-03-22T15:03:56.068Z,28.38
2018-03-22T15:06:25.452Z,28.42
2018-03-22T15:08:55.012Z,28.44
2018-03-22T15:11:24.172Z,28.55
2018-03-22T15:13:53.765Z,28.57
2018-03-22T15:16:23.209Z,28.55
2018-03-22T15:18:52.300Z,28.53
2018-03-22T15:21:21.576Z,28.47
2018-03-22T15:23:50.892Z,28.43
2018-03-22T15:26:20.123Z,28.44
2018-03-22T15:28:51.492Z,28.39
2018-03-22T15:31:20.902Z,28.40
2018-03-22T15:33:50.310Z,28.34
2018-03-22T15:36:19.831Z,28.37
2018-03-22T15:38:49.266Z,28.30
2018-03-22T15:41:18.434Z,28.24
2018-03-22T15:43:47.702Z,28.19
2018-03-22T15:46:17.022Z,28.10
2018-03-22T15:48:46.695Z,28.11
2018-03-22T15:51:16.075Z,28.02
2018-03-22T15:53:45.360Z,27.95
2018-03-22T15:56:14.726Z,27.70
2018-03-22T15:58:44.090Z,27.82
2018-03-22T16:01:13.621Z,27.82
2018-03-22T16:03:42.822Z,27.82
2018-03-22T16:06:11.955Z,27.76
2018-03-22T16:08:41.189Z,27.68
2018-03-22T16:11:10.377Z,27.67
2018-03-22T16:13:39.788Z,27.55
2018-03-22T16:16:08.828Z,27.50
2018-03-22T16:18:38.060Z,27.49
2018-03-22T16:21:07.799Z,27.45
2018-03-22T16:23:36.654Z,27.44
2018-03-22T16:26:05.935Z,27.29
2018-03-22T16:28:35.459Z,27.19
2018-03-22T16:31:05.485Z,27.28
2018-03-22T16:33:34.674Z,27.19
2018-03-22T16:36:04.320Z,27.15
2018-03-22T16:38:33.401Z,27.13
2018-03-22T16:41:02.810Z,26.97
2018-03-22T16:43:32.232Z,26.98
2018-03-22T16:46:01.564Z,26.81
2018-03-22T16:48:30.634Z,26.77
2018-03-22T16:51:00.044Z,26.82
2018-03-22T16:53:29.342Z,26.74
2018-03-22T16:55:58.809Z,26.71
2018-03-22T16:58:30.606Z,26.65
2018-03-22T17:01:00.670Z,26.71
2018-03-22T17:03:30.686Z,26.55
2018-03-22T17:06:00.025Z,26.64
2018-03-22T17:08:29.383Z,26.53
2018-03-22T17:10:58.586Z,26.51
2018-03-22T17:13:28.200Z,26.49
2018-03-22T17:15:57.660Z,26.40
2018-03-22T17:18:26.664Z,26.18
2018-03-22T17:20:55.849Z,26.27
2018-03-22T17:23:24.816Z,26.25
2018-03-22T17:25:54.189Z,26.25
2018-03-22T17:28:23.684Z,26.31
2018-03-22T17:30:52.747Z,26.31
2018-03-22T17:33:22.218Z,26.30
2018-03-22T17:35:51.440Z,26.22
2018-03-22T17:38:20.760Z,26.06
2018-03-22T17:40:49.901Z,26.09
2018-03-22T17:43:19.055Z,26.03
2018-03-22T17:45:48.180Z,26.04
2018-03-22T17:48:17.569Z,25.90
2018-03-22T17:50:46.488Z,26.08
2018-03-22T17:53:16.096Z,25.98
2018-03-22T17:55:45.112Z,25.86
2018-03-22T17:58:14.405Z,25.74
2018-03-22T18:00:43.637Z,25.68
2018-03-22T18:03:12.925Z,25.69
2018-03-22T18:05:42.392Z,25.68
2018-03-22T18:08:11.570Z,25.79
2018-03-22T18:10:40.497Z,25.69
2018-03-22T18:13:10.145Z,25.68
2018-03-22T18:15:39.668Z,25.75
2018-03-22T18:18:08.946Z,25.71
2018-03-22T18:20:39.594Z,25.64
2018-03-22T18:23:09.066Z,25.57
2018-03-22T18:25:38.184Z,25.51
2018-03-22T18:28:07.267Z,25.25
2018-03-22T18:30:36.771Z,25.41
2018-03-22T18:33:05.997Z,25.45
2018-03-22T18:35:35.412Z,25.41
2018-03-22T18:38:04.734Z,25.36
2018-03-22T18:40:34.123Z,25.41
2018-03-22T18:43:03.145Z,25.30
2018-03-22T18:45:32.346Z,25.27
2018-03-22T18:48:01.604Z,25.25
2018-03-22T18:50:30.996Z,25.32
2018-03-22T18:53:00.040Z,25.25
2018-03-22T18:55:29.002Z,25.36
2018-03-22T18:57:58.254Z,25.39
2018-03-22T19:00:27.385Z,25.28
2018-03-22T19:02:56.833Z,25.20
2018-03-22T19:05:26.293Z,25.24
2018-03-22T19:07:55.428Z,25.20
2018-03-22T19:10:24.735Z,25.08
2018-03-22T19:12:55.096Z,25.05
2018-03-22T19:15:24.407Z,24.92
2018-03-22T19:17:53.905Z,24.96
2018-03-22T19:20:23.234Z,24.97
2018-03-22T19:22:53.712Z,24.86
2018-03-22T19:25:23.132Z,24.72
2018-03-22T19:27:52.713Z,24.69
2018-03-22T19:30:22.099Z,24.48
2018-03-22T19:32:51.422Z,24.41
2018-03-22T19:35:20.887Z,24.64
2018-03-22T19:37:50.472Z,24.53
2018-03-22T19:40:19.759Z,24.46
2018-03-22T19:42:49.211Z,24.35
2018-03-22T19:45:18.254Z,24.31
2018-03-22T19:47:47.691Z,24.35
2018-03-22T19:50:17.037Z,24.33
2018-03-22T19:52:46.694Z,24.29
2018-03-22T19:55:15.792Z,24.37
2018-03-22T19:57:44.879Z,24.23
2018-03-22T20:00:14.354Z,24.26
2018-03-22T20:02:43.467Z,24.17
2018-03-22T20:05:12.541Z,24.26
2018-03-22T20:07:41.774Z,24.30
2018-03-22T20:10:10.884Z,24.26
2018-03-22T20:12:40.234Z,24.30
2018-03-22T20:15:09.344Z,24.33
2018-03-22T20:17:38.730Z,24.22
2018-03-22T20:20:08.271Z,24.05
2018-03-22T20:22:37.507Z,24.13
2018-03-22T20:25:06.773Z,24.01
2018-03-22T20:27:35.968Z,24.05
2018-03-22T20:30:05.133Z,24.10
2018-03-22T20:32:34.194Z,24.07
2018-03-22T20:35:03.512Z,24.02
2018-03-22T20:37:32.903Z,24.05
2018-03-22T20:40:01.947Z,24.06
2018-03-22T20:42:31.220Z,24.02
2018-03-22T20:45:00.248Z,23.92
2018-03-22T20:47:29.360Z,23.92
2018-03-22T20:49:58.851Z,23.86
2018-03-22T20:52:28.033Z,23.91
2018-03-22T20:54:57.444Z,23.80
2018-03-22T20:57:26.650Z,23.94
2018-03-22T20:59:55.917Z,23.90
2018-03-22T21:02:25.149Z,23.62
2018-03-22T21:04:54.280Z,23.84
2018-03-22T21:07:23.700Z,23.77
2018-03-22T21:09:52.846Z,23.64
2018-03-22T21:12:21.969Z,23.75
2018-03-22T21:14:52.080Z,23.65
2018-03-22T21:17:21.220Z,23.57
2018-03-22T21:19:50.353Z,23.63
2018-03-22T21:22:19.596Z,23.56
2018-03-22T21:24:48.769Z,23.67
2018-03-22T21:27:17.913Z,23.51
2018-03-22T21:29:47.152Z,23.51
2018-03-22T21:32:16.678Z,23.46
2018-03-22T21:34:45.680Z,23.60
2018-03-22T21:37:14.878Z,23.53
2018-03-22T21:39:44.138Z,23.52
2018-03-22T21:42:13.315Z,23.35
2018-03-22T21:44:43.308Z,23.26
2018-03-22T21:47:24.021Z,23.55
2018-03-22T21:49:53.414Z,23.49
2018-03-22T21:52:33.900Z,23.40
2018-03-22T21:55:03.251Z,23.34
2018-03-22T21:57:32.377Z,23.40
2018-03-22T22:00:01.529Z,23.14
2018-03-22T22:02:30.763Z,23.16
2018-03-22T22:05:00.019Z,23.03
2018-03-22T22:07:29.556Z,23.04
2018-03-22T22:10:00.042Z,23.33
2018-03-22T22:12:29.232Z,23.32
2018-03-22T22:14:58.478Z,22.95
2018-03-22T22:17:27.707Z,22.97
2018-03-22T22:19:57.071Z,23.17
2018-03-22T22:22:26.324Z,23.05
2018-03-22T22:24:55.628Z,23.20
2018-03-22T22:27:25.227Z,23.12
2018-03-22T22:29:54.227Z,22.92
2018-03-22T22:32:23.766Z,23.12
2018-03-22T22:34:53.000Z,22.95
2018-03-22T22:37:22.207Z,22.96
2018-03-22T22:39:51.319Z,22.86
2018-03-22T22:42:20.855Z,22.91
2018-03-22T22:44:50.006Z,22.82
2018-03-22T22:47:19.192Z,22.76
2018-03-22T22:49:48.231Z,22.91
2018-03-22T22:52:17.569Z,22.83
2018-03-22T22:54:46.790Z,22.93
2018-03-22T22:57:16.159Z,22.93
2018-03-22T22:59:45.683Z,22.85
2018-03-22T23:02:15.074Z,22.78
2018-03-22T23:04:44.422Z,22.83
2018-03-22T23:07:13.473Z,23.07
2018-03-22T23:09:42.838Z,23.04
2018-03-22T23:12:12.314Z,22.81
2018-03-22T23:14:41.762Z,22.83
2018-03-22T23:17:11.175Z,22.70
2018-03-22T23:19:46.659Z,22.70
2018-03-22T23:22:16.005Z,22.72
2018-03-22T23:24:45.333Z,22.62
2018-03-22T23:27:14.411Z,22.70
2018-03-22T23:29:43.661Z,22.63
2018-03-22T23:32:12.802Z,22.54
2018-03-22T23:34:41.787Z,22.43
2018-03-22T23:37:11.070Z,22.32
2018-03-22T23:39:39.975Z,22.43
2018-03-22T23:42:09.191Z,22.31
2018-03-22T23:44:38.859Z,22.25
2018-03-22T23:47:08.162Z,22.20
2018-03-22T23:49:37.434Z,22.20
2018-03-22T23:52:06.636Z,22.27
2018-03-22T23:54:36.390Z,22.17
2018-03-22T23:57:05.843Z,22.32
2018-03-22T23:59:35.008Z,22.23
